createdAt,value
2022-10-31T00:00:55.487Z,91.06
2022-10-31T00:03:22.371Z,91.14
2022-10-31T00:05:50.631Z,91.39
2022-10-31T00:08:18.315Z,91.79
2022-10-31T00:10:46.455Z,91.84
2022-10-31T00:13:15.024Z,91.57
2022-10-31T00:15:42.088Z,91.62
2022-10-31T00:18:10.277Z,91.34
2022-10-31T00:20:37.436Z,91.24
2022-10-31T00:23:06.339Z,91.78
2022-10-31T00:25:38.147Z,91.60
2022-10-31T00:28:06.923Z,92.09
2022-10-31T00:30:34.007Z,91.59
2022-10-31T00:33:01.139Z,91.45
2022-10-31T00:35:27.834Z,91.55
2022-10-31T00:37:54.391Z,91.05
2022-10-31T00:40:20.844Z,90.66
2022-10-31T00:42:47.433Z,90.88
2022-10-31T00:45:14.246Z,90.76
2022-10-31T00:47:40.776Z,90.27
2022-10-31T00:50:08.475Z,90.10
2022-10-31T00:52:35.347Z,90.14
2022-10-31T00:55:01.784Z,90.07
2022-10-31T01:01:40.928Z,90.66
2022-10-31T01:04:07.419Z,90.70
2022-10-31T01:06:33.953Z,90.82
2022-10-31T01:09:00.557Z,91.03
2022-10-31T01:11:27.104Z,91.13
2022-10-31T01:13:54.805Z,91.02
2022-10-31T01:16:24.475Z,91.25
2022-10-31T01:18:51.863Z,91.61
2022-10-31T01:21:18.512Z,91.56
2022-10-31T01:23:45.382Z,91.99
2022-10-31T01:26:19.090Z,91.88
2022-10-31T01:28:52.168Z,92.45
2022-10-31T01:31:21.316Z,92.65
2022-10-31T01:33:48.355Z,93.09
2022-10-31T01:36:15.195Z,92.78
2022-10-31T01:38:41.641Z,92.67
2022-10-31T01:41:10.139Z,92.51
2022-10-31T01:43:58.463Z,92.69
2022-10-31T01:46:37.138Z,93.06
2022-10-31T01:49:10.553Z,93.08
2022-10-31T01:51:43.726Z,93.31
2022-10-31T01:54:13.704Z,92.99
2022-10-31T01:56:44.425Z,93.08
2022-10-31T01:59:13.687Z,93.30
2022-10-31T02:01:40.712Z,93.14
2022-10-31T02:04:08.814Z,92.23
2022-10-31T02:06:56.755Z,91.79
2022-10-31T02:09:25.662Z,92.10
2022-10-31T02:11:58.508Z,91.94
2022-10-31T02:14:27.431Z,92.35
2022-10-31T02:16:55.129Z,92.11
2022-10-31T02:19:50.747Z,91.96
2022-10-31T02:22:23.080Z,91.44
2022-10-31T02:24:55.745Z,91.74
2022-10-31T02:27:58.806Z,91.77
2022-10-31T02:31:10.702Z,91.96
2022-10-31T02:33:44.902Z,92.38
2022-10-31T02:36:19.409Z,92.13
2022-10-31T02:38:51.802Z,92.11
2022-10-31T02:41:29.001Z,91.92
2022-10-31T02:44:03.586Z,91.88
2022-10-31T02:47:00.460Z,92.69
2022-10-31T02:49:35.721Z,93.60
2022-10-31T02:52:02.286Z,93.66
2022-10-31T02:54:29.988Z,93.54
2022-10-31T02:57:04.130Z,93.35
2022-10-31T02:59:33.420Z,93.54
2022-10-31T03:02:36.457Z,93.88
2022-10-31T03:05:29.134Z,94.22
2022-10-31T03:08:12.179Z,94.28
2022-10-31T03:10:48.473Z,94.51
2022-10-31T03:13:36.270Z,94.51
2022-10-31T03:16:15.339Z,94.49
2022-10-31T03:18:48.180Z,94.24
2022-10-31T03:21:17.388Z,94.33
2022-10-31T03:23:47.161Z,94.11
2022-10-31T03:26:15.502Z,93.71
2022-10-31T03:28:49.308Z,93.48
2022-10-31T03:31:19.663Z,93.06
2022-10-31T03:33:48.931Z,93.07
2022-10-31T03:36:17.303Z,92.89
2022-10-31T03:38:46.182Z,92.94
2022-10-31T03:41:18.606Z,93.62
2022-10-31T03:43:55.305Z,93.99
2022-10-31T03:46:22.603Z,93.95
2022-10-31T03:48:49.262Z,93.34
2022-10-31T03:51:33.253Z,93.16
2022-10-31T03:54:12.799Z,93.54
2022-10-31T03:56:46.167Z,93.19
2022-10-31T03:59:18.779Z,93.67
2022-10-31T04:01:51.642Z,93.98
2022-10-31T04:04:20.326Z,94.20
2022-10-31T04:06:48.172Z,94.21
2022-10-31T04:09:15.786Z,94.40
2022-10-31T04:11:54.690Z,94.16
2022-10-31T04:14:25.383Z,94.10
2022-10-31T04:16:52.430Z,94.29
2022-10-31T04:19:18.914Z,93.96
2022-10-31T04:21:45.415Z,93.69
2022-10-31T04:24:12.420Z,93.35
2022-10-31T04:26:38.914Z,93.38
2022-10-31T04:29:05.385Z,93.68
2022-10-31T04:31:31.858Z,93.38
2022-10-31T04:33:58.423Z,93.26
2022-10-31T04:36:24.939Z,93.25
2022-10-31T04:38:51.365Z,93.55
2022-10-31T04:41:18.573Z,93.81
2022-10-31T04:43:45.048Z,94.18
2022-10-31T04:46:11.577Z,94.21
2022-10-31T04:48:38.162Z,94.20
2022-10-31T04:51:04.710Z,93.85
2022-10-31T04:53:31.366Z,93.96
2022-10-31T04:56:00.856Z,94.35
2022-10-31T04:58:27.776Z,94.40
2022-10-31T05:00:55.181Z,93.66
2022-10-31T05:03:22.403Z,93.54
2022-10-31T05:05:49.022Z,93.48
2022-10-31T05:08:15.925Z,93.29
2022-10-31T05:10:42.477Z,93.13
2022-10-31T05:13:09.792Z,92.96
2022-10-31T05:15:36.341Z,93.26
2022-10-31T05:18:03.447Z,93.20
2022-10-31T05:20:31.757Z,93.21
2022-10-31T05:22:59.407Z,93.41
2022-10-31T05:25:29.208Z,93.63
2022-10-31T05:27:57.589Z,93.71
2022-10-31T05:30:28.121Z,93.71
2022-10-31T05:32:55.365Z,93.89
2022-10-31T05:35:27.116Z,93.97
2022-10-31T05:37:53.657Z,94.03
2022-10-31T05:40:25.154Z,93.85
2022-10-31T05:42:53.958Z,93.89
2022-10-31T05:45:23.915Z,93.74
2022-10-31T05:48:01.424Z,94.08
2022-10-31T05:50:30.665Z,94.16
2022-10-31T05:52:59.928Z,94.38
2022-10-31T05:55:27.275Z,94.44
2022-10-31T05:57:54.800Z,94.26
2022-10-31T06:00:22.361Z,94.16
2022-10-31T06:02:49.669Z,94.49
2022-10-31T06:05:17.491Z,94.49
2022-10-31T06:07:43.917Z,94.46
2022-10-31T06:10:10.678Z,94.55
2022-10-31T06:12:38.758Z,94.42
2022-10-31T06:15:07.033Z,94.62
2022-10-31T06:17:34.835Z,94.70
2022-10-31T06:20:02.052Z,94.27
2022-10-31T06:22:28.722Z,93.84
2022-10-31T06:24:55.247Z,93.81
2022-10-31T06:27:21.937Z,93.77
2022-10-31T06:29:49.099Z,93.77
2022-10-31T06:32:16.048Z,93.75
2022-10-31T06:34:43.652Z,94.12
2022-10-31T06:37:13.441Z,94.28
2022-10-31T06:39:39.985Z,94.11
2022-10-31T06:42:06.694Z,93.89
2022-10-31T06:44:33.442Z,93.99
2022-10-31T06:47:00.533Z,93.71
2022-10-31T06:49:27.097Z,93.31
2022-10-31T06:51:53.597Z,93.20
2022-10-31T06:54:20.268Z,93.29
2022-10-31T06:56:48.363Z,93.13
2022-10-31T06:59:15.602Z,93.15
2022-10-31T07:01:42.353Z,93.36
2022-10-31T07:04:11.378Z,93.27
2022-10-31T07:06:38.420Z,93.03
2022-10-31T07:09:05.396Z,93.29
2022-10-31T07:11:31.935Z,92.66
2022-10-31T07:13:58.416Z,92.62
2022-10-31T07:16:25.008Z,92.31
2022-10-31T07:18:51.629Z,91.93
2022-10-31T07:21:18.116Z,91.65
2022-10-31T07:23:44.597Z,91.39
2022-10-31T07:26:11.498Z,91.27
2022-10-31T07:28:38.015Z,91.36
2022-10-31T07:33:39.872Z,91.05
2022-10-31T07:36:06.799Z,90.81
2022-10-31T07:38:33.259Z,90.54
2022-10-31T07:40:59.867Z,90.52
2022-10-31T07:43:26.449Z,90.84
2022-10-31T07:45:54.348Z,90.44
2022-10-31T07:48:23.879Z,90.34
2022-10-31T07:50:50.448Z,90.24
2022-10-31T07:53:16.999Z,90.15
2022-10-31T07:55:44.617Z,89.94
2022-10-31T07:58:16.790Z,89.75
2022-10-31T08:00:45.826Z,89.42
2022-10-31T08:03:17.916Z,89.78
2022-10-31T08:05:46.970Z,89.54
2022-10-31T08:08:14.457Z,89.83
2022-10-31T08:10:41.708Z,89.64
2022-10-31T08:13:14.030Z,89.32
2022-10-31T08:15:42.699Z,89.06
2022-10-31T08:18:14.744Z,88.66
2022-10-31T08:20:42.954Z,88.56
2022-10-31T08:23:11.158Z,88.71
2022-10-31T08:25:38.952Z,88.78
2022-10-31T08:28:07.084Z,88.56
2022-10-31T08:30:34.501Z,88.45
2022-10-31T08:33:15.952Z,88.00
2022-10-31T08:35:42.777Z,87.91
2022-10-31T08:38:11.234Z,87.81
2022-10-31T08:40:38.410Z,87.67
2022-10-31T08:43:06.136Z,87.43
2022-10-31T08:45:34.858Z,87.09
2022-10-31T08:48:04.730Z,86.75
2022-10-31T08:50:33.481Z,86.47
2022-10-31T08:53:08.497Z,86.02
2022-10-31T08:55:36.536Z,86.01
2022-10-31T08:58:05.842Z,85.48
2022-10-31T09:00:33.595Z,85.22
2022-10-31T09:03:03.424Z,85.41
2022-10-31T09:05:30.197Z,85.84
2022-10-31T09:08:02.227Z,85.44
2022-10-31T09:10:30.479Z,85.69
2022-10-31T09:13:01.647Z,85.44
2022-10-31T09:15:30.507Z,85.88
2022-10-31T09:17:57.838Z,85.78
2022-10-31T09:20:24.537Z,85.70
2022-10-31T09:23:02.169Z,85.71
2022-10-31T09:25:29.617Z,85.39
2022-10-31T09:28:00.814Z,85.21
2022-10-31T09:30:29.475Z,84.70
2022-10-31T09:33:01.186Z,84.94
2022-10-31T09:35:28.662Z,84.44
2022-10-31T09:38:06.674Z,84.14
2022-10-31T09:40:37.455Z,83.81
2022-10-31T09:43:28.173Z,83.65
2022-10-31T09:46:23.547Z,83.48
2022-10-31T09:49:08.967Z,82.46
2022-10-31T09:51:44.737Z,81.85
2022-10-31T09:54:17.993Z,80.66
2022-10-31T09:56:45.320Z,80.00
2022-10-31T09:59:22.772Z,80.04
2022-10-31T10:02:01.997Z,78.03
2022-10-31T10:04:38.142Z,75.61
2022-10-31T10:07:21.785Z,76.78
2022-10-31T10:09:48.429Z,76.32
2022-10-31T10:12:16.185Z,72.15
2022-10-31T10:14:42.558Z,71.04
2022-10-31T10:17:18.034Z,70.48
2022-10-31T10:20:11.780Z,69.92
2022-10-31T10:22:51.631Z,68.90
2022-10-31T10:25:24.470Z,67.91
2022-10-31T10:28:24.750Z,66.24
2022-10-31T10:31:14.487Z,64.51
2022-10-31T10:33:47.360Z,64.66
2022-10-31T10:36:21.591Z,63.59
2022-10-31T10:38:48.020Z,64.63
2022-10-31T10:41:18.730Z,67.12
2022-10-31T10:47:02.503Z,68.56
2022-10-31T10:49:52.134Z,68.93
2022-10-31T10:52:49.272Z,68.98
2022-10-31T10:55:20.134Z,67.93
2022-10-31T10:57:58.203Z,67.92
2022-10-31T11:00:37.058Z,68.95
2022-10-31T11:03:05.245Z,68.46
2022-10-31T11:05:40.183Z,69.11
2022-10-31T11:08:07.495Z,68.53
2022-10-31T11:10:34.816Z,67.81
2022-10-31T11:13:13.192Z,69.18
2022-10-31T11:15:57.889Z,68.96
2022-10-31T11:18:28.990Z,69.31
2022-10-31T11:20:58.520Z,69.78
2022-10-31T11:23:26.939Z,69.12
2022-10-31T11:26:03.685Z,68.81
2022-10-31T11:28:33.550Z,68.45
2022-10-31T11:31:02.158Z,67.16
2022-10-31T11:33:38.685Z,65.91
2022-10-31T11:36:23.559Z,65.93
2022-10-31T11:38:51.087Z,65.67
2022-10-31T11:41:28.814Z,65.96
2022-10-31T11:44:01.904Z,66.90
2022-10-31T11:46:34.106Z,67.73
2022-10-31T11:49:02.763Z,67.35
2022-10-31T11:51:33.902Z,66.85
2022-10-31T11:54:03.596Z,66.41
2022-10-31T11:56:43.402Z,66.01
2022-10-31T11:59:31.596Z,65.43
2022-10-31T12:02:00.705Z,64.52
2022-10-31T12:04:36.170Z,64.35
2022-10-31T12:07:02.845Z,63.92
2022-10-31T12:09:34.590Z,63.06
2022-10-31T12:12:23.022Z,63.58
2022-10-31T12:14:50.169Z,63.98
2022-10-31T12:17:23.794Z,63.74
2022-10-31T12:20:34.426Z,63.19
2022-10-31T12:23:35.350Z,62.70
2022-10-31T12:26:12.576Z,63.09
2022-10-31T12:29:02.047Z,63.42
2022-10-31T12:31:29.252Z,63.64
2022-10-31T12:34:14.802Z,64.06
2022-10-31T12:36:44.269Z,64.58
2022-10-31T12:39:31.601Z,63.61
2022-10-31T12:42:25.210Z,63.93
2022-10-31T12:45:20.639Z,63.76
2022-10-31T12:48:25.063Z,63.49
2022-10-31T12:51:06.399Z,64.01
2022-10-31T12:53:56.495Z,65.03
2022-10-31T12:56:46.096Z,64.78
2022-10-31T12:59:31.813Z,64.89
2022-10-31T13:02:01.413Z,65.15
2022-10-31T13:04:49.221Z,65.37
2022-10-31T13:07:24.563Z,65.31
2022-10-31T13:10:07.335Z,65.91
2022-10-31T13:12:37.669Z,65.88
2022-10-31T13:15:15.919Z,65.72
2022-10-31T13:17:52.147Z,65.48
2022-10-31T13:20:28.590Z,65.92
2022-10-31T13:23:18.139Z,66.10
2022-10-31T13:25:56.578Z,65.68
2022-10-31T13:28:45.499Z,65.71
2022-10-31T13:31:12.038Z,65.97
2022-10-31T13:33:49.448Z,65.46
2022-10-31T13:36:22.721Z,65.38
2022-10-31T13:39:27.207Z,65.59
2022-10-31T13:41:54.007Z,65.35
2022-10-31T13:44:27.713Z,65.90
2022-10-31T13:46:56.195Z,66.19
2022-10-31T13:49:25.619Z,66.22
2022-10-31T13:51:55.027Z,66.37
2022-10-31T13:54:34.118Z,66.49
2022-10-31T13:57:01.180Z,66.52
2022-10-31T13:59:29.832Z,66.76
2022-10-31T14:01:58.935Z,67.08
2022-10-31T14:04:31.506Z,67.20
2022-10-31T14:07:12.949Z,67.18
2022-10-31T14:09:50.728Z,67.17
2022-10-31T14:12:35.567Z,67.48
2022-10-31T14:15:26.827Z,67.60
2022-10-31T14:18:03.091Z,67.71
2022-10-31T14:20:45.442Z,67.75
2022-10-31T14:23:33.766Z,67.76
2022-10-31T14:26:18.161Z,68.15
2022-10-31T14:28:45.791Z,67.88
2022-10-31T14:31:36.737Z,67.94
2022-10-31T14:34:20.680Z,67.97
2022-10-31T14:36:53.115Z,67.84
2022-10-31T14:39:29.042Z,67.97
2022-10-31T14:42:10.793Z,68.20
2022-10-31T14:44:52.443Z,67.93
2022-10-31T14:47:41.336Z,68.19
2022-10-31T14:50:22.008Z,68.24
2022-10-31T14:52:52.949Z,68.18
2022-10-31T14:55:20.858Z,68.45
2022-10-31T14:57:58.605Z,68.29
2022-10-31T15:00:26.748Z,68.37
2022-10-31T15:03:17.121Z,68.22
2022-10-31T15:05:49.646Z,68.25
2022-10-31T15:08:28.256Z,68.46
2022-10-31T15:10:54.880Z,68.20
2022-10-31T15:13:23.015Z,68.30
2022-10-31T15:15:55.855Z,67.81
2022-10-31T15:18:27.353Z,67.92
2022-10-31T15:20:56.437Z,67.49
2022-10-31T15:23:28.583Z,67.41
2022-10-31T15:26:06.195Z,67.66
2022-10-31T15:28:33.410Z,67.24
2022-10-31T15:31:02.096Z,66.90
2022-10-31T15:33:37.551Z,66.55
2022-10-31T15:36:04.978Z,66.44
2022-10-31T15:38:31.714Z,66.27
2022-10-31T15:41:21.031Z,66.38
2022-10-31T15:43:48.693Z,66.02
2022-10-31T15:46:15.790Z,65.90
2022-10-31T15:48:47.451Z,65.86
2022-10-31T15:51:14.314Z,65.98
2022-10-31T16:11:09.271Z,67.10
2022-10-31T16:13:38.287Z,66.74
2022-10-31T16:19:02.126Z,67.29
2022-10-31T16:21:35.408Z,67.51
2022-10-31T16:24:06.480Z,67.87
2022-10-31T16:26:33.928Z,68.16
2022-10-31T16:29:05.769Z,68.41
2022-10-31T16:31:40.866Z,68.42
2022-10-31T16:34:26.684Z,68.48
2022-10-31T16:36:53.987Z,68.33
2022-10-31T16:39:20.761Z,68.74
2022-10-31T16:41:51.575Z,68.89
2022-10-31T16:44:22.328Z,69.17
2022-10-31T16:46:48.770Z,69.08
2022-10-31T16:49:16.732Z,69.26
2022-10-31T16:51:43.890Z,69.17
2022-10-31T16:54:11.801Z,69.33
2022-10-31T16:56:39.424Z,69.21
2022-10-31T16:59:16.055Z,69.30
2022-10-31T17:01:45.816Z,69.15
2022-10-31T17:04:16.126Z,69.24
2022-10-31T17:06:43.028Z,69.35
2022-10-31T17:09:09.904Z,69.34
2022-10-31T17:11:36.902Z,69.19
2022-10-31T17:16:45.447Z,69.35
2022-10-31T17:19:14.508Z,69.54
2022-10-31T17:24:22.991Z,69.47
2022-10-31T17:26:49.503Z,69.67
2022-10-31T17:29:15.979Z,70.11
2022-10-31T17:31:42.514Z,69.99
2022-10-31T17:34:09.521Z,70.27
2022-10-31T17:36:36.777Z,70.05
2022-10-31T17:39:05.524Z,69.94
2022-10-31T17:41:32.381Z,70.05
2022-10-31T17:43:59.778Z,70.03
2022-10-31T17:46:26.647Z,70.04
2022-10-31T17:48:53.290Z,70.04
2022-10-31T17:51:19.841Z,70.02
2022-10-31T17:53:46.529Z,70.30
2022-10-31T17:56:13.016Z,69.94
2022-10-31T17:58:39.849Z,69.99
2022-10-31T18:01:14.729Z,70.18
2022-10-31T18:03:41.645Z,70.44
2022-10-31T18:06:10.683Z,70.52
2022-10-31T18:08:39.805Z,70.83
2022-10-31T18:11:14.693Z,70.90
2022-10-31T18:13:42.167Z,71.21
2022-10-31T18:16:20.371Z,71.40
2022-10-31T18:18:56.298Z,71.31
2022-10-31T18:21:22.744Z,71.30
2022-10-31T18:23:54.210Z,71.40
2022-10-31T18:26:20.932Z,71.04
2022-10-31T18:28:47.483Z,71.15
2022-10-31T18:31:13.980Z,71.03
2022-10-31T18:33:42.519Z,71.09
2022-10-31T18:36:10.530Z,70.97
2022-10-31T18:38:42.405Z,71.15
2022-10-31T18:41:09.282Z,71.27
2022-10-31T18:43:35.816Z,71.13
2022-10-31T18:46:04.333Z,71.08
2022-10-31T18:48:31.535Z,71.21
2022-10-31T18:51:02.322Z,70.66
2022-10-31T18:53:28.894Z,71.21
2022-10-31T19:06:42.035Z,70.91
2022-10-31T19:09:09.928Z,71.34
2022-10-31T19:11:38.369Z,71.61
2022-10-31T19:14:06.069Z,71.69
2022-10-31T19:16:32.463Z,72.25
2022-10-31T19:19:00.129Z,72.37
2022-10-31T19:21:27.192Z,72.41
2022-10-31T19:23:56.650Z,72.38
2022-10-31T19:26:29.435Z,72.83
2022-10-31T19:31:38.660Z,73.02
2022-10-31T19:34:05.510Z,73.24
2022-10-31T19:36:33.470Z,73.31
2022-10-31T19:39:01.985Z,73.52
2022-10-31T19:41:30.094Z,73.60
2022-10-31T19:44:03.579Z,73.64
2022-10-31T19:49:16.634Z,73.76
2022-10-31T19:51:43.158Z,73.76
2022-10-31T19:54:11.109Z,73.95
2022-10-31T19:56:37.955Z,73.94
2022-10-31T19:59:04.896Z,74.10
2022-10-31T20:01:31.624Z,74.12
2022-10-31T20:03:58.251Z,74.12
2022-10-31T20:06:32.217Z,74.13
2022-10-31T20:09:03.583Z,74.15
2022-10-31T20:11:33.515Z,74.09
2022-10-31T20:14:00.555Z,73.87
2022-10-31T20:16:28.653Z,73.94
2022-10-31T20:18:56.100Z,74.11
2022-10-31T20:21:24.950Z,74.13
2022-10-31T20:24:04.458Z,73.99
2022-10-31T20:26:32.952Z,73.93
2022-10-31T20:29:00.636Z,74.14
2022-10-31T20:31:28.375Z,74.05
2022-10-31T20:33:55.795Z,74.23
2022-10-31T20:36:32.797Z,74.11
2022-10-31T20:39:02.033Z,74.38
2022-10-31T20:41:31.763Z,74.31
2022-10-31T20:44:02.242Z,74.08
2022-10-31T20:46:31.947Z,74.21
2022-10-31T20:49:00.858Z,73.77
2022-10-31T20:51:30.675Z,73.77
2022-10-31T20:54:00.531Z,73.68
2022-10-31T20:59:09.297Z,73.77
2022-10-31T21:01:37.908Z,73.28
2022-10-31T21:04:10.618Z,73.50
2022-10-31T21:06:37.232Z,73.39
2022-10-31T21:19:47.262Z,73.10
2022-10-31T21:22:13.800Z,73.24
2022-10-31T21:24:41.535Z,73.34
2022-10-31T21:29:57.303Z,73.22
2022-10-31T21:32:27.538Z,73.53
2022-10-31T21:34:56.036Z,73.26
2022-10-31T21:37:22.817Z,73.50
2022-10-31T21:42:30.584Z,73.32
2022-10-31T21:44:57.406Z,73.57
2022-10-31T21:50:04.916Z,73.70
2022-10-31T21:52:31.876Z,73.95
2022-10-31T21:54:59.831Z,73.83
2022-10-31T22:00:09.036Z,73.96
2022-10-31T22:02:36.507Z,74.11
2022-10-31T22:05:04.175Z,74.10
2022-10-31T22:07:31.542Z,74.16
2022-10-31T22:09:58.009Z,74.25
2022-10-31T22:12:24.651Z,74.48
2022-10-31T22:14:51.129Z,74.26
2022-10-31T22:17:17.596Z,74.25
2022-10-31T22:19:44.115Z,74.07
2022-10-31T22:22:12.783Z,74.20
2022-10-31T22:24:39.396Z,74.07
2022-10-31T22:27:05.821Z,74.04
2022-10-31T22:29:32.635Z,74.29
2022-10-31T22:32:00.647Z,74.20
2022-10-31T22:34:29.596Z,74.09
2022-10-31T22:36:56.576Z,74.19
2022-10-31T22:39:23.012Z,74.13
2022-10-31T22:41:49.570Z,73.94
2022-10-31T22:44:16.040Z,73.86
2022-10-31T22:46:42.588Z,73.73
2022-10-31T22:49:17.804Z,73.63
2022-10-31T22:51:44.722Z,73.87
2022-10-31T22:54:16.703Z,73.79
2022-10-31T22:56:43.536Z,73.66
2022-10-31T22:59:14.825Z,73.81
2022-10-31T23:01:42.123Z,73.97
2022-10-31T23:04:08.889Z,74.08
2022-10-31T23:06:35.433Z,74.50
2022-10-31T23:09:04.381Z,74.68
2022-10-31T23:11:40.729Z,74.84
2022-10-31T23:14:14.186Z,74.87
2022-10-31T23:16:45.282Z,75.02
2022-10-31T23:19:16.305Z,75.04
2022-10-31T23:21:57.593Z,75.14
2022-10-31T23:24:32.127Z,75.28
2022-10-31T23:27:09.491Z,75.45
2022-10-31T23:29:37.452Z,75.50
2022-10-31T23:32:09.200Z,75.64
2022-10-31T23:34:35.688Z,76.02
2022-10-31T23:37:02.350Z,76.11
2022-10-31T23:39:29.679Z,76.28
2022-10-31T23:41:56.168Z,76.34
2022-10-31T23:44:22.732Z,76.73
2022-10-31T23:46:49.261Z,77.73
2022-10-31T23:49:15.750Z,78.73
2022-10-31T23:51:42.254Z,80.00
2022-10-31T23:54:09.408Z,79.83
2022-10-31T23:56:36.242Z,80.61
2022-10-31T23:59:02.982Z,80.59
